sensor_id;sensor_type;location;lat;lon;timestamp;P1;durP1;ratioP1;P2;durP2;ratioP2
81801;SDS011;71199;52.490;5.448;2024-02-23T00:01:02;16.23;;;2.00;;
81801;SDS011;71199;52.490;5.448;2024-02-23T00:03:27;7.53;;;1.50;;
81801;SDS011;71199;52.490;5.448;2024-02-23T00:05:52;6.13;;;1.67;;
81801;SDS011;71199;52.490;5.448;2024-02-23T00:08:18;11.63;;;1.80;;
81801;SDS011;71199;52.490;5.448;2024-02-23T00:10:44;11.02;;;2.00;;
81801;SDS011;71199;52.490;5.448;2024-02-23T00:13:09;15.15;;;2.55;;
81801;SDS011;71199;52.490;5.448;2024-02-23T00:15:35;19.97;;;2.83;;
81801;SDS011;71199;52.490;5.448;2024-02-23T00:18:00;15.77;;;2.80;;
81801;SDS011;71199;52.490;5.448;2024-02-23T00:20:28;13.85;;;3.08;;
81801;SDS011;71199;52.490;5.448;2024-02-23T00:22:53;8.27;;;2.28;;
81801;SDS011;71199;52.490;5.448;2024-02-23T00:25:19;11.95;;;2.40;;
81801;SDS011;71199;52.490;5.448;2024-02-23T00:27:44;8.13;;;2.35;;
81801;SDS011;71199;52.490;5.448;2024-02-23T00:30:11;9.60;;;1.85;;
81801;SDS011;71199;52.490;5.448;2024-02-23T00:32:37;5.93;;;2.45;;
81801;SDS011;71199;52.490;5.448;2024-02-23T00:35:02;12.77;;;3.13;;
81801;SDS011;71199;52.490;5.448;2024-02-23T00:37:28;14.75;;;2.83;;
81801;SDS011;71199;52.490;5.448;2024-02-23T00:39:53;17.33;;;2.53;;
81801;SDS011;71199;52.490;5.448;2024-02-23T00:42:19;10.73;;;1.97;;
81801;SDS011;71199;52.490;5.448;2024-02-23T00:44:46;12.10;;;2.97;;
81801;SDS011;71199;52.490;5.448;2024-02-23T00:47:11;10.55;;;2.67;;
81801;SDS011;71199;52.490;5.448;2024-02-23T00:49:36;10.40;;;2.08;;
81801;SDS011;71199;52.490;5.448;2024-02-23T00:52:02;9.90;;;2.73;;
81801;SDS011;71199;52.490;5.448;2024-02-23T00:54:27;10.52;;;2.67;;
81801;SDS011;71199;52.490;5.448;2024-02-23T00:56:53;9.50;;;2.10;;
81801;SDS011;71199;52.490;5.448;2024-02-23T00:59:18;21.97;;;3.63;;
81801;SDS011;71199;52.490;5.448;2024-02-23T01:01:43;7.68;;;2.10;;
81801;SDS011;71199;52.490;5.448;2024-02-23T01:04:09;11.73;;;2.67;;
81801;SDS011;71199;52.490;5.448;2024-02-23T01:06:34;10.90;;;2.60;;
81801;SDS011;71199;52.490;5.448;2024-02-23T01:08:59;16.30;;;2.20;;
81801;SDS011;71199;52.490;5.448;2024-02-23T01:11:25;9.18;;;1.92;;
81801;SDS011;71199;52.490;5.448;2024-02-23T01:13:50;12.85;;;2.28;;
81801;SDS011;71199;52.490;5.448;2024-02-23T01:16:16;8.00;;;1.97;;
81801;SDS011;71199;52.490;5.448;2024-02-23T01:18:41;6.38;;;1.77;;
81801;SDS011;71199;52.490;5.448;2024-02-23T01:21:07;10.80;;;2.05;;
81801;SDS011;71199;52.490;5.448;2024-02-23T01:23:33;10.68;;;2.05;;
81801;SDS011;71199;52.490;5.448;2024-02-23T01:25:58;10.47;;;2.70;;
81801;SDS011;71199;52.490;5.448;2024-02-23T01:28:25;8.23;;;2.42;;
81801;SDS011;71199;52.490;5.448;2024-02-23T01:30:50;10.13;;;2.05;;
81801;SDS011;71199;52.490;5.448;2024-02-23T01:33:16;4.68;;;1.55;;
81801;SDS011;71199;52.490;5.448;2024-02-23T01:35:41;15.13;;;2.03;;
81801;SDS011;71199;52.490;5.448;2024-02-23T01:38:06;6.50;;;2.00;;
81801;SDS011;71199;52.490;5.448;2024-02-23T01:40:32;14.67;;;2.50;;
81801;SDS011;71199;52.490;5.448;2024-02-23T01:43:00;10.63;;;2.20;;
81801;SDS011;71199;52.490;5.448;2024-02-23T01:45:29;11.13;;;2.40;;
81801;SDS011;71199;52.490;5.448;2024-02-23T01:47:56;7.22;;;2.25;;
81801;SDS011;71199;52.490;5.448;2024-02-23T01:50:22;7.95;;;1.80;;
81801;SDS011;71199;52.490;5.448;2024-02-23T01:52:49;6.85;;;2.00;;
81801;SDS011;71199;52.490;5.448;2024-02-23T01:55:17;10.30;;;1.88;;
81801;SDS011;71199;52.490;5.448;2024-02-23T01:57:45;11.57;;;2.22;;
81801;SDS011;71199;52.490;5.448;2024-02-23T02:00:13;5.25;;;1.52;;
81801;SDS011;71199;52.490;5.448;2024-02-23T02:02:42;8.80;;;1.88;;
81801;SDS011;71199;52.490;5.448;2024-02-23T02:05:08;8.52;;;2.22;;
81801;SDS011;71199;52.490;5.448;2024-02-23T02:07:34;10.50;;;2.00;;
81801;SDS011;71199;52.490;5.448;2024-02-23T02:09:59;9.63;;;2.25;;
81801;SDS011;71199;52.490;5.448;2024-02-23T02:12:28;5.78;;;1.83;;
81801;SDS011;71199;52.490;5.448;2024-02-23T02:14:54;7.47;;;2.30;;
81801;SDS011;71199;52.490;5.448;2024-02-23T02:17:20;5.88;;;1.65;;
81801;SDS011;71199;52.490;5.448;2024-02-23T02:19:47;10.30;;;2.85;;
81801;SDS011;71199;52.490;5.448;2024-02-23T02:22:13;9.43;;;2.85;;
81801;SDS011;71199;52.490;5.448;2024-02-23T02:24:38;7.80;;;1.87;;
81801;SDS011;71199;52.490;5.448;2024-02-23T02:27:06;11.90;;;2.20;;
81801;SDS011;71199;52.490;5.448;2024-02-23T02:29:31;9.45;;;1.98;;
81801;SDS011;71199;52.490;5.448;2024-02-23T02:31:57;8.43;;;1.80;;
81801;SDS011;71199;52.490;5.448;2024-02-23T02:34:22;12.83;;;1.77;;
81801;SDS011;71199;52.490;5.448;2024-02-23T02:36:48;10.98;;;1.90;;
81801;SDS011;71199;52.490;5.448;2024-02-23T02:39:14;6.90;;;1.83;;
81801;SDS011;71199;52.490;5.448;2024-02-23T02:41:39;7.32;;;1.80;;
81801;SDS011;71199;52.490;5.448;2024-02-23T02:44:05;8.82;;;2.38;;
81801;SDS011;71199;52.490;5.448;2024-02-23T02:46:30;13.33;;;1.73;;
81801;SDS011;71199;52.490;5.448;2024-02-23T02:48:55;6.03;;;2.13;;
81801;SDS011;71199;52.490;5.448;2024-02-23T02:51:21;14.83;;;2.30;;
81801;SDS011;71199;52.490;5.448;2024-02-23T02:53:46;7.53;;;2.10;;
81801;SDS011;71199;52.490;5.448;2024-02-23T02:56:11;8.67;;;1.80;;
81801;SDS011;71199;52.490;5.448;2024-02-23T02:58:37;9.55;;;1.98;;
81801;SDS011;71199;52.490;5.448;2024-02-23T03:01:02;13.33;;;1.70;;
81801;SDS011;71199;52.490;5.448;2024-02-23T03:03:28;5.03;;;1.55;;
81801;SDS011;71199;52.490;5.448;2024-02-23T03:05:53;10.60;;;2.03;;
81801;SDS011;71199;52.490;5.448;2024-02-23T03:08:19;10.40;;;2.55;;
81801;SDS011;71199;52.490;5.448;2024-02-23T03:10:44;12.57;;;2.30;;
81801;SDS011;71199;52.490;5.448;2024-02-23T03:13:09;4.90;;;1.80;;
81801;SDS011;71199;52.490;5.448;2024-02-23T03:15:35;8.33;;;1.87;;
81801;SDS011;71199;52.490;5.448;2024-02-23T03:18:00;9.33;;;2.07;;
81801;SDS011;71199;52.490;5.448;2024-02-23T03:20:27;8.25;;;1.90;;
81801;SDS011;71199;52.490;5.448;2024-02-23T03:22:52;7.07;;;1.70;;
81801;SDS011;71199;52.490;5.448;2024-02-23T03:25:18;8.13;;;1.80;;
81801;SDS011;71199;52.490;5.448;2024-02-23T03:27:43;11.82;;;1.80;;
81801;SDS011;71199;52.490;5.448;2024-02-23T03:30:09;16.58;;;3.53;;
81801;SDS011;71199;52.490;5.448;2024-02-23T03:32:35;7.60;;;1.90;;
81801;SDS011;71199;52.490;5.448;2024-02-23T03:35:04;7.28;;;1.88;;
81801;SDS011;71199;52.490;5.448;2024-02-23T03:37:31;9.88;;;1.75;;
81801;SDS011;71199;52.490;5.448;2024-02-23T03:39:56;7.50;;;2.17;;
81801;SDS011;71199;52.490;5.448;2024-02-23T03:42:22;9.57;;;1.80;;
81801;SDS011;71199;52.490;5.448;2024-02-23T03:44:47;7.73;;;2.03;;
81801;SDS011;71199;52.490;5.448;2024-02-23T03:47:12;8.10;;;1.57;;
81801;SDS011;71199;52.490;5.448;2024-02-23T03:49:38;10.20;;;2.00;;
81801;SDS011;71199;52.490;5.448;2024-02-23T03:52:04;8.35;;;1.70;;
81801;SDS011;71199;52.490;5.448;2024-02-23T03:54:30;10.75;;;2.80;;
81801;SDS011;71199;52.490;5.448;2024-02-23T03:56:56;4.68;;;1.33;;
81801;SDS011;71199;52.490;5.448;2024-02-23T03:59:22;10.05;;;2.03;;
81801;SDS011;71199;52.490;5.448;2024-02-23T04:01:47;9.20;;;1.63;;
81801;SDS011;71199;52.490;5.448;2024-02-23T04:04:12;10.27;;;1.80;;
81801;SDS011;71199;52.490;5.448;2024-02-23T04:06:38;10.47;;;2.37;;
81801;SDS011;71199;52.490;5.448;2024-02-23T04:09:04;6.50;;;1.60;;
81801;SDS011;71199;52.490;5.448;2024-02-23T04:11:30;7.63;;;2.28;;
81801;SDS011;71199;52.490;5.448;2024-02-23T04:13:56;13.40;;;2.15;;
81801;SDS011;71199;52.490;5.448;2024-02-23T04:16:24;9.30;;;1.90;;
81801;SDS011;71199;52.490;5.448;2024-02-23T04:18:50;7.57;;;2.40;;
81801;SDS011;71199;52.490;5.448;2024-02-23T04:21:16;9.40;;;2.75;;
81801;SDS011;71199;52.490;5.448;2024-02-23T04:23:42;4.43;;;2.40;;
81801;SDS011;71199;52.490;5.448;2024-02-23T04:26:08;7.85;;;2.03;;
81801;SDS011;71199;52.490;5.448;2024-02-23T04:28:34;10.68;;;2.28;;
81801;SDS011;71199;52.490;5.448;2024-02-23T04:31:02;8.70;;;2.10;;
81801;SDS011;71199;52.490;5.448;2024-02-23T04:33:28;4.03;;;2.03;;
81801;SDS011;71199;52.490;5.448;2024-02-23T04:35:53;9.27;;;2.10;;
81801;SDS011;71199;52.490;5.448;2024-02-23T04:38:18;8.40;;;2.00;;
81801;SDS011;71199;52.490;5.448;2024-02-23T04:40:44;4.63;;;2.28;;
81801;SDS011;71199;52.490;5.448;2024-02-23T04:43:09;6.90;;;1.80;;
81801;SDS011;71199;52.490;5.448;2024-02-23T04:45:34;11.83;;;2.20;;
81801;SDS011;71199;52.490;5.448;2024-02-23T04:48:00;6.97;;;1.90;;
81801;SDS011;71199;52.490;5.448;2024-02-23T04:50:26;9.70;;;2.63;;
81801;SDS011;71199;52.490;5.448;2024-02-23T04:52:52;7.77;;;2.17;;
81801;SDS011;71199;52.490;5.448;2024-02-23T04:55:17;6.60;;;2.00;;
81801;SDS011;71199;52.490;5.448;2024-02-23T04:57:42;8.23;;;1.97;;
81801;SDS011;71199;52.490;5.448;2024-02-23T05:00:08;11.37;;;3.13;;
81801;SDS011;71199;52.490;5.448;2024-02-23T05:02:33;8.82;;;2.00;;
81801;SDS011;71199;52.490;5.448;2024-02-23T05:05:03;9.73;;;2.20;;
81801;SDS011;71199;52.490;5.448;2024-02-23T05:07:30;12.88;;;2.88;;
81801;SDS011;71199;52.490;5.448;2024-02-23T05:09:56;7.97;;;2.28;;
81801;SDS011;71199;52.490;5.448;2024-02-23T05:12:22;11.73;;;2.45;;
81801;SDS011;71199;52.490;5.448;2024-02-23T05:14:47;7.83;;;2.10;;
81801;SDS011;71199;52.490;5.448;2024-02-23T05:17:13;8.77;;;2.40;;
81801;SDS011;71199;52.490;5.448;2024-02-23T05:19:38;6.83;;;2.97;;
81801;SDS011;71199;52.490;5.448;2024-02-23T05:22:03;9.43;;;2.37;;
81801;SDS011;71199;52.490;5.448;2024-02-23T05:24:29;16.05;;;3.65;;
81801;SDS011;71199;52.490;5.448;2024-02-23T05:26:54;9.52;;;3.13;;
81801;SDS011;71199;52.490;5.448;2024-02-23T05:29:20;17.10;;;3.40;;
81801;SDS011;71199;52.490;5.448;2024-02-23T05:31:51;8.25;;;3.28;;
81801;SDS011;71199;52.490;5.448;2024-02-23T05:34:17;6.38;;;3.08;;
81801;SDS011;71199;52.490;5.448;2024-02-23T05:36:43;11.80;;;3.92;;
81801;SDS011;71199;52.490;5.448;2024-02-23T05:39:10;7.63;;;3.33;;
81801;SDS011;71199;52.490;5.448;2024-02-23T05:41:37;11.35;;;3.47;;
81801;SDS011;71199;52.490;5.448;2024-02-23T05:44:03;10.43;;;3.97;;
81801;SDS011;71199;52.490;5.448;2024-02-23T05:46:30;12.15;;;4.05;;
81801;SDS011;71199;52.490;5.448;2024-02-23T05:48:57;8.48;;;3.42;;
81801;SDS011;71199;52.490;5.448;2024-02-23T05:51:22;13.00;;;3.80;;
81801;SDS011;71199;52.490;5.448;2024-02-23T05:53:47;7.15;;;3.20;;
81801;SDS011;71199;52.490;5.448;2024-02-23T05:56:13;9.63;;;2.85;;
81801;SDS011;71199;52.490;5.448;2024-02-23T05:58:38;9.52;;;4.07;;
81801;SDS011;71199;52.490;5.448;2024-02-23T06:01:04;9.88;;;3.17;;
81801;SDS011;71199;52.490;5.448;2024-02-23T06:03:30;8.13;;;3.25;;
81801;SDS011;71199;52.490;5.448;2024-02-23T06:05:55;14.20;;;3.50;;
81801;SDS011;71199;52.490;5.448;2024-02-23T06:08:21;9.50;;;3.10;;
81801;SDS011;71199;52.490;5.448;2024-02-23T06:10:46;9.67;;;3.83;;
81801;SDS011;71199;52.490;5.448;2024-02-23T06:13:11;11.60;;;3.43;;
81801;SDS011;71199;52.490;5.448;2024-02-23T06:15:37;10.37;;;3.03;;
81801;SDS011;71199;52.490;5.448;2024-02-23T06:18:03;5.85;;;2.97;;
81801;SDS011;71199;52.490;5.448;2024-02-23T06:20:29;5.68;;;3.03;;
81801;SDS011;71199;52.490;5.448;2024-02-23T06:22:54;7.90;;;3.47;;
81801;SDS011;71199;52.490;5.448;2024-02-23T06:25:20;9.10;;;3.60;;
81801;SDS011;71199;52.490;5.448;2024-02-23T06:27:45;11.50;;;3.93;;
81801;SDS011;71199;52.490;5.448;2024-02-23T06:30:11;11.13;;;3.73;;
81801;SDS011;71199;52.490;5.448;2024-02-23T06:32:37;11.73;;;3.92;;
81801;SDS011;71199;52.490;5.448;2024-02-23T06:35:02;8.23;;;3.20;;
81801;SDS011;71199;52.490;5.448;2024-02-23T06:37:28;9.18;;;3.17;;
81801;SDS011;71199;52.490;5.448;2024-02-23T06:39:53;9.80;;;3.55;;
81801;SDS011;71199;52.490;5.448;2024-02-23T06:42:22;7.05;;;3.33;;
81801;SDS011;71199;52.490;5.448;2024-02-23T06:44:48;7.93;;;3.63;;
81801;SDS011;71199;52.490;5.448;2024-02-23T06:47:13;7.10;;;3.80;;
81801;SDS011;71199;52.490;5.448;2024-02-23T06:49:42;8.93;;;3.80;;
81801;SDS011;71199;52.490;5.448;2024-02-23T06:52:08;8.32;;;3.60;;
81801;SDS011;71199;52.490;5.448;2024-02-23T06:54:34;8.55;;;3.70;;
81801;SDS011;71199;52.490;5.448;2024-02-23T06:56:59;9.57;;;3.80;;
81801;SDS011;71199;52.490;5.448;2024-02-23T06:59:25;8.27;;;3.47;;
81801;SDS011;71199;52.490;5.448;2024-02-23T07:01:50;11.47;;;3.93;;
81801;SDS011;71199;52.490;5.448;2024-02-23T07:04:16;6.43;;;3.65;;
81801;SDS011;71199;52.490;5.448;2024-02-23T07:06:42;9.32;;;3.25;;
81801;SDS011;71199;52.490;5.448;2024-02-23T07:09:08;8.27;;;2.85;;
81801;SDS011;71199;52.490;5.448;2024-02-23T07:11:34;9.80;;;3.45;;
81801;SDS011;71199;52.490;5.448;2024-02-23T07:13:59;9.27;;;3.33;;
81801;SDS011;71199;52.490;5.448;2024-02-23T07:16:25;5.57;;;3.10;;
81801;SDS011;71199;52.490;5.448;2024-02-23T07:18:50;8.43;;;3.07;;
81801;SDS011;71199;52.490;5.448;2024-02-23T07:21:18;5.80;;;2.80;;
81801;SDS011;71199;52.490;5.448;2024-02-23T07:23:44;6.43;;;3.10;;
81801;SDS011;71199;52.490;5.448;2024-02-23T07:26:09;5.07;;;3.10;;
81801;SDS011;71199;52.490;5.448;2024-02-23T07:28:35;4.47;;;2.60;;
81801;SDS011;71199;52.490;5.448;2024-02-23T07:31:00;5.83;;;2.87;;
81801;SDS011;71199;52.490;5.448;2024-02-23T07:33:25;7.00;;;2.75;;
81801;SDS011;71199;52.490;5.448;2024-02-23T07:35:51;5.13;;;2.88;;
81801;SDS011;71199;52.490;5.448;2024-02-23T07:38:16;9.20;;;2.78;;
81801;SDS011;71199;52.490;5.448;2024-02-23T07:40:43;6.82;;;2.63;;
81801;SDS011;71199;52.490;5.448;2024-02-23T07:43:09;6.80;;;2.88;;
81801;SDS011;71199;52.490;5.448;2024-02-23T07:45:36;4.60;;;1.98;;
81801;SDS011;71199;52.490;5.448;2024-02-23T07:48:02;7.70;;;2.38;;
81801;SDS011;71199;52.490;5.448;2024-02-23T07:50:28;5.78;;;2.15;;
81801;SDS011;71199;52.490;5.448;2024-02-23T07:52:53;4.67;;;2.00;;
81801;SDS011;71199;52.490;5.448;2024-02-23T07:55:18;6.50;;;1.90;;
81801;SDS011;71199;52.490;5.448;2024-02-23T07:57:44;3.63;;;1.65;;
81801;SDS011;71199;52.490;5.448;2024-02-23T08:00:09;4.75;;;2.33;;
81801;SDS011;71199;52.490;5.448;2024-02-23T08:02:35;6.03;;;3.35;;
81801;SDS011;71199;52.490;5.448;2024-02-23T08:05:01;7.00;;;2.15;;
81801;SDS011;71199;52.490;5.448;2024-02-23T08:07:27;5.90;;;1.85;;
81801;SDS011;71199;52.490;5.448;2024-02-23T08:09:53;5.28;;;1.85;;
81801;SDS011;71199;52.490;5.448;2024-02-23T08:12:19;4.13;;;1.60;;
81801;SDS011;71199;52.490;5.448;2024-02-23T08:14:44;6.32;;;2.00;;
81801;SDS011;71199;52.490;5.448;2024-02-23T08:17:11;5.03;;;1.95;;
81801;SDS011;71199;52.490;5.448;2024-02-23T08:19:37;6.88;;;2.13;;
81801;SDS011;71199;52.490;5.448;2024-02-23T08:22:02;7.43;;;2.22;;
81801;SDS011;71199;52.490;5.448;2024-02-23T08:24:28;8.60;;;2.45;;
81801;SDS011;71199;52.490;5.448;2024-02-23T08:26:53;6.60;;;1.60;;
81801;SDS011;71199;52.490;5.448;2024-02-23T08:29:19;8.27;;;1.70;;
81801;SDS011;71199;52.490;5.448;2024-02-23T08:31:44;4.07;;;1.80;;
81801;SDS011;71199;52.490;5.448;2024-02-23T08:34:10;4.45;;;1.35;;
81801;SDS011;71199;52.490;5.448;2024-02-23T08:36:35;6.80;;;1.67;;
81801;SDS011;71199;52.490;5.448;2024-02-23T08:39:01;5.60;;;1.77;;
81801;SDS011;71199;52.490;5.448;2024-02-23T08:41:27;6.50;;;2.05;;
81801;SDS011;71199;52.490;5.448;2024-02-23T08:43:53;6.15;;;1.58;;
81801;SDS011;71199;52.490;5.448;2024-02-23T08:46:20;3.50;;;1.73;;
81801;SDS011;71199;52.490;5.448;2024-02-23T08:48:46;6.35;;;1.70;;
81801;SDS011;71199;52.490;5.448;2024-02-23T08:51:12;10.32;;;2.20;;
81801;SDS011;71199;52.490;5.448;2024-02-23T08:53:37;4.85;;;1.73;;
81801;SDS011;71199;52.490;5.448;2024-02-23T08:56:03;8.60;;;2.30;;
81801;SDS011;71199;52.490;5.448;2024-02-23T08:58:29;6.40;;;1.88;;
81801;SDS011;71199;52.490;5.448;2024-02-23T09:00:55;7.95;;;2.15;;
81801;SDS011;71199;52.490;5.448;2024-02-23T09:03:20;8.80;;;2.13;;
81801;SDS011;71199;52.490;5.448;2024-02-23T09:05:46;8.43;;;2.00;;
81801;SDS011;71199;52.490;5.448;2024-02-23T09:08:13;9.23;;;2.20;;
81801;SDS011;71199;52.490;5.448;2024-02-23T09:10:39;6.82;;;1.83;;
81801;SDS011;71199;52.490;5.448;2024-02-23T09:13:04;8.43;;;2.50;;
81801;SDS011;71199;52.490;5.448;2024-02-23T09:15:31;6.87;;;2.30;;
81801;SDS011;71199;52.490;5.448;2024-02-23T09:17:56;6.45;;;1.85;;
81801;SDS011;71199;52.490;5.448;2024-02-23T09:20:22;5.20;;;1.80;;
81801;SDS011;71199;52.490;5.448;2024-02-23T09:22:47;8.85;;;3.33;;
81801;SDS011;71199;52.490;5.448;2024-02-23T09:25:13;11.02;;;3.00;;
81801;SDS011;71199;52.490;5.448;2024-02-23T09:27:38;7.78;;;2.15;;
81801;SDS011;71199;52.490;5.448;2024-02-23T09:30:08;6.85;;;2.30;;
81801;SDS011;71199;52.490;5.448;2024-02-23T09:32:36;7.20;;;2.13;;
81801;SDS011;71199;52.490;5.448;2024-02-23T09:35:01;9.77;;;2.10;;
81801;SDS011;71199;52.490;5.448;2024-02-23T09:37:28;6.00;;;2.10;;
81801;SDS011;71199;52.490;5.448;2024-02-23T09:39:53;5.90;;;1.83;;
81801;SDS011;71199;52.490;5.448;2024-02-23T09:42:18;7.23;;;2.03;;
81801;SDS011;71199;52.490;5.448;2024-02-23T09:44:48;4.05;;;1.90;;
81801;SDS011;71199;52.490;5.448;2024-02-23T09:47:22;9.80;;;2.67;;
81801;SDS011;71199;52.490;5.448;2024-02-23T09:49:49;4.78;;;1.73;;
81801;SDS011;71199;52.490;5.448;2024-02-23T09:52:16;6.25;;;2.22;;
81801;SDS011;71199;52.490;5.448;2024-02-23T09:54:44;4.90;;;1.70;;
81801;SDS011;71199;52.490;5.448;2024-02-23T09:57:09;5.88;;;2.67;;
81801;SDS011;71199;52.490;5.448;2024-02-23T09:59:35;5.07;;;1.90;;
81801;SDS011;71199;52.490;5.448;2024-02-23T10:02:01;9.07;;;2.25;;
81801;SDS011;71199;52.490;5.448;2024-02-23T10:04:32;4.72;;;2.15;;
81801;SDS011;71199;52.490;5.448;2024-02-23T10:06:57;5.47;;;2.17;;
81801;SDS011;71199;52.490;5.448;2024-02-23T10:09:23;4.88;;;2.05;;
81801;SDS011;71199;52.490;5.448;2024-02-23T10:11:54;5.97;;;2.20;;
81801;SDS011;71199;52.490;5.448;2024-02-23T10:14:20;7.35;;;1.80;;
81801;SDS011;71199;52.490;5.448;2024-02-23T10:16:46;3.55;;;2.30;;
81801;SDS011;71199;52.490;5.448;2024-02-23T10:19:11;7.57;;;2.10;;
81801;SDS011;71199;52.490;5.448;2024-02-23T10:21:36;4.15;;;1.90;;
81801;SDS011;71199;52.490;5.448;2024-02-23T10:24:02;6.10;;;2.10;;
81801;SDS011;71199;52.490;5.448;2024-02-23T10:26:27;5.97;;;2.10;;
81801;SDS011;71199;52.490;5.448;2024-02-23T10:28:53;5.18;;;1.77;;
81801;SDS011;71199;52.490;5.448;2024-02-23T10:31:18;13.57;;;2.30;;
81801;SDS011;71199;52.490;5.448;2024-02-23T10:33:44;4.65;;;1.70;;
81801;SDS011;71199;52.490;5.448;2024-02-23T10:36:10;5.05;;;1.98;;
81801;SDS011;71199;52.490;5.448;2024-02-23T10:38:39;4.72;;;1.63;;
81801;SDS011;71199;52.490;5.448;2024-02-23T10:41:07;3.17;;;1.63;;
81801;SDS011;71199;52.490;5.448;2024-02-23T10:43:41;6.38;;;2.30;;
81801;SDS011;71199;52.490;5.448;2024-02-23T10:46:11;8.38;;;1.90;;
81801;SDS011;71199;52.490;5.448;2024-02-23T10:48:43;2.78;;;1.60;;
81801;SDS011;71199;52.490;5.448;2024-02-23T10:51:13;7.88;;;2.13;;
81801;SDS011;71199;52.490;5.448;2024-02-23T10:53:39;6.57;;;2.03;;
81801;SDS011;71199;52.490;5.448;2024-02-23T10:56:05;5.45;;;2.38;;
81801;SDS011;71199;52.490;5.448;2024-02-23T10:58:32;7.93;;;2.20;;
81801;SDS011;71199;52.490;5.448;2024-02-23T11:00:59;4.22;;;1.90;;
81801;SDS011;71199;52.490;5.448;2024-02-23T11:03:32;5.95;;;2.13;;
81801;SDS011;71199;52.490;5.448;2024-02-23T11:06:00;7.43;;;1.95;;
81801;SDS011;71199;52.490;5.448;2024-02-23T11:08:29;5.20;;;2.95;;
81801;SDS011;71199;52.490;5.448;2024-02-23T11:10:55;11.23;;;2.28;;
81801;SDS011;71199;52.490;5.448;2024-02-23T11:13:30;7.22;;;2.50;;
81801;SDS011;71199;52.490;5.448;2024-02-23T11:16:02;6.97;;;1.80;;
81801;SDS011;71199;52.490;5.448;2024-02-23T11:18:31;5.00;;;1.70;;
81801;SDS011;71199;52.490;5.448;2024-02-23T11:21:00;4.90;;;2.03;;
81801;SDS011;71199;52.490;5.448;2024-02-23T11:23:27;4.78;;;2.20;;
81801;SDS011;71199;52.490;5.448;2024-02-23T11:26:05;5.57;;;2.13;;
81801;SDS011;71199;52.490;5.448;2024-02-23T11:28:41;5.75;;;2.25;;
81801;SDS011;71199;52.490;5.448;2024-02-23T11:31:21;5.43;;;2.33;;
81801;SDS011;71199;52.490;5.448;2024-02-23T11:33:55;7.97;;;2.25;;
81801;SDS011;71199;52.490;5.448;2024-02-23T11:36:34;8.02;;;2.35;;
81801;SDS011;71199;52.490;5.448;2024-02-23T11:39:00;10.88;;;2.17;;
81801;SDS011;71199;52.490;5.448;2024-02-23T11:41:27;4.15;;;2.00;;
81801;SDS011;71199;52.490;5.448;2024-02-23T11:43:53;3.92;;;2.00;;
81801;SDS011;71199;52.490;5.448;2024-02-23T11:46:23;4.55;;;2.13;;
81801;SDS011;71199;52.490;5.448;2024-02-23T11:48:49;6.50;;;2.00;;
81801;SDS011;71199;52.490;5.448;2024-02-23T11:51:21;6.70;;;2.38;;
81801;SDS011;71199;52.490;5.448;2024-02-23T11:56:13;3.20;;;2.10;;
81801;SDS011;71199;52.490;5.448;2024-02-23T11:58:42;3.67;;;1.90;;
81801;SDS011;71199;52.490;5.448;2024-02-23T12:01:07;4.43;;;1.92;;
81801;SDS011;71199;52.490;5.448;2024-02-23T12:03:33;3.25;;;1.73;;
81801;SDS011;71199;52.490;5.448;2024-02-23T12:06:02;4.00;;;1.73;;
81801;SDS011;71199;52.490;5.448;2024-02-23T12:08:29;3.88;;;1.92;;
81801;SDS011;71199;52.490;5.448;2024-02-23T12:10:56;6.43;;;2.45;;
81801;SDS011;71199;52.490;5.448;2024-02-23T12:13:25;6.35;;;2.20;;
81801;SDS011;71199;52.490;5.448;2024-02-23T12:15:52;6.78;;;1.85;;
81801;SDS011;71199;52.490;5.448;2024-02-23T12:18:18;3.92;;;1.80;;
81801;SDS011;71199;52.490;5.448;2024-02-23T12:20:48;6.45;;;2.42;;
81801;SDS011;71199;52.490;5.448;2024-02-23T12:23:14;4.00;;;1.73;;
81801;SDS011;71199;52.490;5.448;2024-02-23T12:25:40;5.72;;;2.10;;
81801;SDS011;71199;52.490;5.448;2024-02-23T12:28:05;5.28;;;2.00;;
81801;SDS011;71199;52.490;5.448;2024-02-23T12:30:31;5.95;;;1.90;;
81801;SDS011;71199;52.490;5.448;2024-02-23T12:33:07;5.10;;;2.20;;
81801;SDS011;71199;52.490;5.448;2024-02-23T12:35:33;4.45;;;1.80;;
81801;SDS011;71199;52.490;5.448;2024-02-23T12:38:00;4.72;;;1.92;;
81801;SDS011;71199;52.490;5.448;2024-02-23T12:40:25;6.43;;;1.83;;
81801;SDS011;71199;52.490;5.448;2024-02-23T12:42:51;5.13;;;1.55;;
81801;SDS011;71199;52.490;5.448;2024-02-23T12:45:16;7.38;;;1.75;;
81801;SDS011;71199;52.490;5.448;2024-02-23T12:47:42;5.95;;;2.22;;
81801;SDS011;71199;52.490;5.448;2024-02-23T12:50:07;4.03;;;1.70;;
81801;SDS011;71199;52.490;5.448;2024-02-23T12:52:33;6.28;;;1.85;;
81801;SDS011;71199;52.490;5.448;2024-02-23T12:54:59;4.50;;;1.95;;
81801;SDS011;71199;52.490;5.448;2024-02-23T12:57:24;4.70;;;1.67;;
81801;SDS011;71199;52.490;5.448;2024-02-23T12:59:50;5.43;;;1.80;;
81801;SDS011;71199;52.490;5.448;2024-02-23T13:02:16;4.25;;;1.52;;
81801;SDS011;71199;52.490;5.448;2024-02-23T13:04:42;6.97;;;2.10;;
81801;SDS011;71199;52.490;5.448;2024-02-23T13:07:11;8.35;;;1.70;;
81801;SDS011;71199;52.490;5.448;2024-02-23T13:09:36;3.20;;;1.30;;
81801;SDS011;71199;52.490;5.448;2024-02-23T13:12:02;5.03;;;1.50;;
81801;SDS011;71199;52.490;5.448;2024-02-23T13:14:27;4.78;;;1.40;;
81801;SDS011;71199;52.490;5.448;2024-02-23T13:16:53;5.10;;;1.60;;
81801;SDS011;71199;52.490;5.448;2024-02-23T13:19:18;3.97;;;1.35;;
81801;SDS011;71199;52.490;5.448;2024-02-23T13:21:44;3.87;;;1.60;;
81801;SDS011;71199;52.490;5.448;2024-02-23T13:24:09;4.50;;;1.60;;
81801;SDS011;71199;52.490;5.448;2024-02-23T13:26:34;3.83;;;1.58;;
81801;SDS011;71199;52.490;5.448;2024-02-23T13:29:00;5.25;;;1.50;;
81801;SDS011;71199;52.490;5.448;2024-02-23T13:31:25;3.30;;;1.30;;
81801;SDS011;71199;52.490;5.448;2024-02-23T13:33:51;6.80;;;1.80;;
81801;SDS011;71199;52.490;5.448;2024-02-23T13:36:16;7.93;;;1.63;;
81801;SDS011;71199;52.490;5.448;2024-02-23T13:38:41;6.40;;;1.70;;
81801;SDS011;71199;52.490;5.448;2024-02-23T13:41:07;7.22;;;2.10;;
81801;SDS011;71199;52.490;5.448;2024-02-23T13:43:32;6.95;;;1.60;;
81801;SDS011;71199;52.490;5.448;2024-02-23T13:45:59;3.40;;;1.60;;
81801;SDS011;71199;52.490;5.448;2024-02-23T13:48:24;5.25;;;1.60;;
81801;SDS011;71199;52.490;5.448;2024-02-23T13:50:50;8.23;;;1.57;;
81801;SDS011;71199;52.490;5.448;2024-02-23T13:53:15;7.85;;;1.83;;
81801;SDS011;71199;52.490;5.448;2024-02-23T13:55:41;3.13;;;1.35;;
81801;SDS011;71199;52.490;5.448;2024-02-23T13:58:09;4.45;;;1.40;;
81801;SDS011;71199;52.490;5.448;2024-02-23T14:00:35;6.70;;;1.63;;
81801;SDS011;71199;52.490;5.448;2024-02-23T14:03:01;6.57;;;1.80;;
81801;SDS011;71199;52.490;5.448;2024-02-23T14:05:26;8.60;;;1.60;;
81801;SDS011;71199;52.490;5.448;2024-02-23T14:07:52;5.07;;;2.13;;
81801;SDS011;71199;52.490;5.448;2024-02-23T14:10:18;3.85;;;1.63;;
81801;SDS011;71199;52.490;5.448;2024-02-23T14:12:44;5.03;;;1.52;;
81801;SDS011;71199;52.490;5.448;2024-02-23T14:15:09;2.85;;;1.33;;
81801;SDS011;71199;52.490;5.448;2024-02-23T14:17:35;4.40;;;1.50;;
81801;SDS011;71199;52.490;5.448;2024-02-23T14:20:01;10.05;;;1.65;;
81801;SDS011;71199;52.490;5.448;2024-02-23T14:22:27;5.03;;;1.80;;
81801;SDS011;71199;52.490;5.448;2024-02-23T14:24:53;5.85;;;1.67;;
81801;SDS011;71199;52.490;5.448;2024-02-23T14:27:18;3.97;;;1.42;;
81801;SDS011;71199;52.490;5.448;2024-02-23T14:29:44;4.20;;;1.65;;
81801;SDS011;71199;52.490;5.448;2024-02-23T14:32:10;2.97;;;1.38;;
81801;SDS011;71199;52.490;5.448;2024-02-23T14:34:41;7.18;;;2.53;;
81801;SDS011;71199;52.490;5.448;2024-02-23T14:37:07;3.58;;;1.25;;
81801;SDS011;71199;52.490;5.448;2024-02-23T14:39:32;6.70;;;2.65;;
81801;SDS011;71199;52.490;5.448;2024-02-23T14:41:58;6.72;;;1.58;;